createdAt,value
2018-06-02T00:01:04.225Z,1016.51
2018-06-02T00:02:31.536Z,1016.56
2018-06-02T00:03:58.717Z,1016.60
2018-06-02T00:05:25.999Z,1016.61
2018-06-02T00:06:53.373Z,1016.58
2018-06-02T00:08:20.497Z,1016.54
2018-06-02T00:09:48.151Z,1016.52
2018-06-02T00:11:14.995Z,1016.50
2018-06-02T00:12:42.443Z,1016.47
2018-06-02T00:14:09.998Z,1016.47
2018-06-02T00:15:37.652Z,1016.50
2018-06-02T00:17:05.060Z,1016.52
2018-06-02T00:18:32.618Z,1016.50
2018-06-02T00:20:00.018Z,1016.47
2018-06-02T00:21:27.364Z,1016.49
2018-06-02T00:22:54.987Z,1016.49
2018-06-02T00:24:22.455Z,1016.48
2018-06-02T00:25:49.728Z,1016.44
2018-06-02T00:27:16.765Z,1016.43
2018-06-02T00:28:44.035Z,1016.42
2018-06-02T00:30:11.739Z,1016.44
2018-06-02T00:31:39.192Z,1016.45
2018-06-02T00:33:06.681Z,1016.47
2018-06-02T00:34:34.298Z,1016.48
2018-06-02T00:36:01.714Z,1016.49
2018-06-02T00:37:29.211Z,1016.47
2018-06-02T00:38:56.539Z,1016.44
2018-06-02T00:40:24.190Z,1016.41
2018-06-02T00:41:51.905Z,1016.40
2018-06-02T00:43:19.279Z,1016.41
2018-06-02T00:44:46.642Z,1016.41
2018-06-02T00:46:14.154Z,1016.40
2018-06-02T00:47:41.523Z,1016.40
2018-06-02T00:49:09.201Z,1016.40
2018-06-02T00:50:36.745Z,1016.40
2018-06-02T00:52:04.169Z,1016.38
2018-06-02T00:53:31.395Z,1016.36
2018-06-02T00:54:58.839Z,1016.33
2018-06-02T00:56:26.588Z,1016.31
2018-06-02T00:57:54.111Z,1016.31
2018-06-02T00:59:21.724Z,1016.30
2018-06-02T01:00:49.365Z,1016.31
2018-06-02T01:02:16.682Z,1016.34
2018-06-02T01:03:44.123Z,1016.34
2018-06-02T01:05:11.729Z,1016.34
2018-06-02T01:06:39.205Z,1016.31
2018-06-02T01:08:06.532Z,1016.31
2018-06-02T01:09:34.101Z,1016.30
2018-06-02T01:11:01.511Z,1016.30
2018-06-02T01:12:29.175Z,1016.30
2018-06-02T01:13:56.339Z,1016.33
2018-06-02T01:15:24.043Z,1016.33
2018-06-02T01:16:51.514Z,1016.30
2018-06-02T01:18:18.911Z,1016.27
2018-06-02T01:19:46.638Z,1016.26
2018-06-02T01:21:14.078Z,1016.28
2018-06-02T01:22:41.560Z,1016.29
2018-06-02T01:24:09.299Z,1016.28
2018-06-02T01:25:36.824Z,1016.25
2018-06-02T01:27:04.081Z,1016.27
2018-06-02T01:28:31.515Z,1016.26
2018-06-02T01:29:59.840Z,1016.28
2018-06-02T01:31:26.131Z,1016.34
2018-06-02T01:32:53.735Z,1016.34
2018-06-02T01:34:21.136Z,1016.36
2018-06-02T01:35:48.776Z,1016.36
2018-06-02T01:37:16.146Z,1016.37
2018-06-02T01:38:43.567Z,1016.37
2018-06-02T01:40:11.151Z,1016.39
2018-06-02T01:41:38.788Z,1016.42
2018-06-02T01:43:06.272Z,1016.46
2018-06-02T01:44:33.765Z,1016.45
2018-06-02T01:46:01.167Z,1016.45
2018-06-02T01:47:28.659Z,1016.45
2018-06-02T01:48:56.082Z,1016.44
2018-06-02T01:50:28.701Z,1016.43
2018-06-02T01:51:51.185Z,1016.42
2018-06-02T01:53:18.786Z,1016.42
2018-06-02T01:54:46.183Z,1016.42
2018-06-02T01:56:13.644Z,1016.43
2018-06-02T01:57:41.224Z,1016.43
2018-06-02T01:59:08.695Z,1016.40
2018-06-02T02:00:36.376Z,1016.41
2018-06-02T02:02:03.748Z,1016.42
2018-06-02T02:03:31.174Z,1016.43
2018-06-02T02:04:58.666Z,1016.43
2018-06-02T02:06:26.320Z,1016.42
2018-06-02T02:07:53.715Z,1016.41
2018-06-02T02:09:21.337Z,1016.41
2018-06-02T02:10:48.907Z,1016.42
2018-06-02T02:12:16.354Z,1016.43
2018-06-02T02:13:43.928Z,1016.42
2018-06-02T02:15:11.278Z,1016.42
2018-06-02T02:16:38.976Z,1016.41
2018-06-02T02:18:06.299Z,1016.41
2018-06-02T02:19:33.863Z,1016.43
2018-06-02T02:21:01.271Z,1016.45
2018-06-02T02:22:28.323Z,1016.47
2018-06-02T02:23:55.707Z,1016.51
2018-06-02T02:25:23.403Z,1016.57
2018-06-02T02:26:50.463Z,1016.61
2018-06-02T02:28:18.020Z,1016.62
2018-06-02T02:29:45.489Z,1016.67
2018-06-02T02:31:12.836Z,1016.66
2018-06-02T02:32:40.460Z,1016.63
2018-06-02T02:34:07.770Z,1016.61
2018-06-02T02:35:35.243Z,1016.58
2018-06-02T02:37:02.498Z,1016.57
2018-06-02T02:38:29.795Z,1016.58
2018-06-02T02:39:57.209Z,1016.58
2018-06-02T02:41:24.624Z,1016.58
2018-06-02T02:42:51.968Z,1016.60
2018-06-02T02:44:19.637Z,1016.61
2018-06-02T02:45:46.770Z,1016.65
2018-06-02T02:47:14.241Z,1016.71
2018-06-02T02:48:41.753Z,1016.70
2018-06-02T02:50:09.183Z,1016.71
2018-06-02T02:51:36.685Z,1016.72
2018-06-02T02:53:03.956Z,1016.72
2018-06-02T02:54:31.284Z,1016.74
2018-06-02T02:55:58.662Z,1016.73
2018-06-02T02:57:25.482Z,1016.73
2018-06-02T02:58:52.999Z,1016.73
2018-06-02T03:00:20.471Z,1016.75
2018-06-02T03:01:47.906Z,1016.74
2018-06-02T03:03:15.480Z,1016.75
2018-06-02T03:04:42.919Z,1016.79
2018-06-02T03:06:09.813Z,1016.85
2018-06-02T03:07:37.506Z,1016.87
2018-06-02T03:09:05.031Z,1016.86
2018-06-02T03:10:32.238Z,1016.90
2018-06-02T03:11:59.062Z,1017.00
2018-06-02T03:13:26.707Z,1016.98
2018-06-02T03:14:54.110Z,1017.00
2018-06-02T03:16:21.249Z,1017.05
2018-06-02T03:17:48.696Z,1017.04
2018-06-02T03:19:16.414Z,1017.06
2018-06-02T03:20:43.865Z,1017.07
2018-06-02T03:22:11.357Z,1017.07
2018-06-02T03:23:37.849Z,1017.13
2018-06-02T03:25:05.368Z,1017.13
2018-06-02T03:26:32.675Z,1017.14
2018-06-02T03:27:59.946Z,1017.16
2018-06-02T03:29:27.319Z,1017.12
2018-06-02T03:30:54.827Z,1017.13
2018-06-02T03:32:22.176Z,1017.16
2018-06-02T03:33:49.644Z,1017.16
2018-06-02T03:35:17.057Z,1017.15
2018-06-02T03:36:44.602Z,1017.18
2018-06-02T03:38:12.152Z,1017.18
2018-06-02T03:39:38.763Z,1017.21
2018-06-02T03:41:06.291Z,1017.14
2018-06-02T03:42:33.567Z,1017.13
2018-06-02T03:44:00.896Z,1017.12
2018-06-02T03:45:28.246Z,1017.10
2018-06-02T03:46:55.840Z,1017.11
2018-06-02T03:48:23.452Z,1017.15
2018-06-02T03:49:50.997Z,1017.17
2018-06-02T03:51:18.335Z,1017.18
2018-06-02T03:52:45.008Z,1017.20
2018-06-02T03:54:12.654Z,1017.18
2018-06-02T03:55:40.232Z,1017.14
2018-06-02T03:57:07.682Z,1017.15
2018-06-02T03:58:35.264Z,1017.17
2018-06-02T04:00:02.444Z,1017.17
2018-06-02T04:01:29.974Z,1017.18
2018-06-02T04:02:56.856Z,1017.16
2018-06-02T04:04:23.871Z,1017.15
2018-06-02T04:05:51.149Z,1017.16
2018-06-02T04:07:18.911Z,1017.18
2018-06-02T04:08:45.898Z,1017.21
2018-06-02T04:10:13.520Z,1017.22
2018-06-02T04:11:41.107Z,1017.24
2018-06-02T04:13:08.611Z,1017.28
2018-06-02T04:14:36.021Z,1017.31
2018-06-02T04:16:03.531Z,1017.34
2018-06-02T04:17:30.931Z,1017.29
2018-06-02T04:18:58.131Z,1017.26
2018-06-02T04:20:25.706Z,1017.27
2018-06-02T04:21:52.525Z,1017.32
2018-06-02T04:23:20.202Z,1017.34
2018-06-02T04:24:47.760Z,1017.32
2018-06-02T04:26:14.783Z,1017.36
2018-06-02T04:27:42.463Z,1017.37
2018-06-02T04:29:09.688Z,1017.33
2018-06-02T04:30:37.167Z,1017.30
2018-06-02T04:32:04.225Z,1017.24
2018-06-02T04:33:31.762Z,1017.25
2018-06-02T04:34:59.051Z,1017.24
2018-06-02T04:36:26.424Z,1017.26
2018-06-02T04:37:53.912Z,1017.27
2018-06-02T04:39:21.139Z,1017.28
2018-06-02T04:40:48.438Z,1017.24
2018-06-02T04:42:16.159Z,1017.24
2018-06-02T04:43:43.604Z,1017.24
2018-06-02T04:45:11.221Z,1017.25
2018-06-02T04:46:38.806Z,1017.23
2018-06-02T04:48:05.835Z,1017.25
2018-06-02T04:49:33.295Z,1017.26
2018-06-02T04:51:00.237Z,1017.24
2018-06-02T04:52:27.702Z,1017.24
2018-06-02T04:53:55.029Z,1017.17
2018-06-02T04:55:22.635Z,1017.15
2018-06-02T04:56:50.330Z,1017.14
2018-06-02T04:58:17.698Z,1017.11
2018-06-02T04:59:45.078Z,1017.08
2018-06-02T05:01:12.615Z,1017.05
2018-06-02T05:02:40.074Z,1017.03
2018-06-02T05:04:07.646Z,1017.06
2018-06-02T05:05:35.064Z,1017.08
2018-06-02T05:07:02.669Z,1017.10
2018-06-02T05:08:29.970Z,1017.13
2018-06-02T05:09:57.434Z,1017.12
2018-06-02T05:11:24.972Z,1017.09
2018-06-02T05:12:52.666Z,1017.10
2018-06-02T05:14:19.998Z,1017.11
2018-06-02T05:15:47.516Z,1017.11
2018-06-02T05:17:14.596Z,1017.11
2018-06-02T05:18:42.162Z,1017.09
2018-06-02T05:20:09.647Z,1017.05
2018-06-02T05:21:36.991Z,1017.03
2018-06-02T05:23:04.576Z,1016.99
2018-06-02T05:24:31.945Z,1016.98
2018-06-02T05:25:59.389Z,1016.99
2018-06-02T05:27:26.773Z,1016.98
2018-06-02T05:28:54.314Z,1017.01
2018-06-02T05:30:21.887Z,1017.00
2018-06-02T05:31:49.370Z,1016.97
2018-06-02T05:33:17.013Z,1016.96
2018-06-02T05:34:44.521Z,1016.96
2018-06-02T05:36:12.075Z,1016.99
2018-06-02T05:37:39.729Z,1017.00
2018-06-02T05:39:07.011Z,1016.99
2018-06-02T05:40:34.278Z,1016.99
2018-06-02T05:42:01.589Z,1017.00
2018-06-02T05:43:28.858Z,1017.02
2018-06-02T05:44:56.106Z,1017.00
2018-06-02T05:46:23.488Z,1017.00
2018-06-02T05:47:50.982Z,1016.98
2018-06-02T05:49:18.533Z,1016.99
2018-06-02T05:50:45.959Z,1016.98
2018-06-02T05:52:13.466Z,1016.96
2018-06-02T05:53:41.093Z,1016.96
2018-06-02T05:55:08.744Z,1016.94
2018-06-02T05:56:36.419Z,1016.92
2018-06-02T05:58:04.123Z,1016.92
2018-06-02T05:59:31.382Z,1016.91
2018-06-02T06:00:58.945Z,1016.88
2018-06-02T06:02:26.761Z,1016.89
2018-06-02T06:03:54.070Z,1016.87
2018-06-02T06:05:21.300Z,1016.88
2018-06-02T06:06:48.446Z,1016.84
2018-06-02T06:08:15.956Z,1016.82
2018-06-02T06:09:43.541Z,1016.80
2018-06-02T06:11:10.979Z,1016.76
2018-06-02T06:12:38.493Z,1016.73
2018-06-02T06:14:06.073Z,1016.69
2018-06-02T06:15:33.664Z,1016.67
2018-06-02T06:17:01.232Z,1016.65
2018-06-02T06:18:29.032Z,1016.64
2018-06-02T06:19:59.767Z,1016.64
2018-06-02T06:21:23.750Z,1016.63
2018-06-02T06:22:51.231Z,1016.59
2018-06-02T06:24:18.851Z,1016.60
2018-06-02T06:25:45.588Z,1016.57
2018-06-02T06:27:13.344Z,1016.59
2018-06-02T06:28:40.523Z,1016.61
2018-06-02T06:30:08.314Z,1016.63
2018-06-02T06:31:35.891Z,1016.64
2018-06-02T06:33:03.478Z,1016.66
2018-06-02T06:34:30.698Z,1016.69
2018-06-02T06:35:58.188Z,1016.70
2018-06-02T06:37:25.771Z,1016.71
2018-06-02T06:38:53.388Z,1016.70
2018-06-02T06:40:21.085Z,1016.72
2018-06-02T06:41:48.801Z,1016.71
2018-06-02T06:43:16.484Z,1016.72
2018-06-02T06:44:44.141Z,1016.74
2018-06-02T06:46:11.818Z,1016.73
2018-06-02T06:47:39.100Z,1016.72
2018-06-02T06:49:06.779Z,1016.69
2018-06-02T06:50:34.593Z,1016.68
2018-06-02T06:52:02.034Z,1016.67
2018-06-02T06:53:29.316Z,1016.69
2018-06-02T06:54:56.804Z,1016.67
2018-06-02T06:56:24.566Z,1016.69
2018-06-02T06:57:52.140Z,1016.67
2018-06-02T06:59:19.679Z,1016.68
2018-06-02T07:00:46.959Z,1016.67
2018-06-02T07:02:14.533Z,1016.65
2018-06-02T07:03:42.070Z,1016.65
2018-06-02T07:05:09.606Z,1016.64
2018-06-02T07:06:37.414Z,1016.66
2018-06-02T07:08:05.001Z,1016.65
2018-06-02T07:09:32.611Z,1016.64
2018-06-02T07:11:00.087Z,1016.65
2018-06-02T07:12:27.193Z,1016.61
2018-06-02T07:13:54.865Z,1016.60
2018-06-02T07:15:22.486Z,1016.62
2018-06-02T07:16:50.260Z,1016.62
2018-06-02T07:18:17.976Z,1016.61
2018-06-02T07:19:44.512Z,1016.63
2018-06-02T07:21:12.137Z,1016.65
2018-06-02T07:22:39.763Z,1016.64
2018-06-02T07:24:07.390Z,1016.65
2018-06-02T07:25:35.238Z,1016.64
2018-06-02T07:27:02.737Z,1016.63
2018-06-02T07:28:30.508Z,1016.62
2018-06-02T07:29:58.200Z,1016.62
2018-06-02T07:31:25.843Z,1016.62
2018-06-02T07:32:53.435Z,1016.63
2018-06-02T07:34:21.225Z,1016.64
2018-06-02T07:35:48.217Z,1016.66
2018-06-02T07:37:15.906Z,1016.67
2018-06-02T07:38:43.513Z,1016.70
2018-06-02T07:40:11.109Z,1016.69
2018-06-02T07:41:38.711Z,1016.72
2018-06-02T07:43:06.228Z,1016.74
2018-06-02T07:44:33.710Z,1016.73
2018-06-02T07:46:00.974Z,1016.72
2018-06-02T07:47:28.719Z,1016.73
2018-06-02T07:48:56.202Z,1016.73
2018-06-02T07:50:23.715Z,1016.73
2018-06-02T07:51:51.401Z,1016.73
2018-06-02T07:53:18.997Z,1016.71
2018-06-02T07:54:46.608Z,1016.70
2018-06-02T07:56:13.883Z,1016.71
2018-06-02T07:57:40.944Z,1016.72
2018-06-02T07:59:08.253Z,1016.73
2018-06-02T08:00:35.978Z,1016.79
2018-06-02T08:02:03.041Z,1016.82
2018-06-02T08:03:30.642Z,1016.83
2018-06-02T08:04:57.954Z,1016.85
2018-06-02T08:06:25.683Z,1016.86
2018-06-02T08:07:53.391Z,1016.87
2018-06-02T08:09:20.369Z,1016.90
2018-06-02T08:10:48.040Z,1016.90
2018-06-02T08:12:15.776Z,1016.90
2018-06-02T08:13:42.196Z,1016.91
2018-06-02T08:15:09.846Z,1016.92
2018-06-02T08:16:36.590Z,1016.93
2018-06-02T08:18:04.283Z,1016.92
2018-06-02T08:19:31.913Z,1016.95
2018-06-02T08:20:59.433Z,1016.97
2018-06-02T08:22:26.755Z,1016.96
2018-06-02T08:23:54.369Z,1016.99
2018-06-02T08:25:21.636Z,1017.00
2018-06-02T08:26:48.640Z,1017.00
2018-06-02T08:28:16.476Z,1017.01
2018-06-02T08:29:44.139Z,1017.01
2018-06-02T08:31:11.741Z,1017.02
2018-06-02T08:32:39.316Z,1017.00
2018-06-02T08:34:06.945Z,1017.00
2018-06-02T08:35:34.464Z,1017.00
2018-06-02T08:37:01.919Z,1017.01
2018-06-02T08:38:29.530Z,1017.01
2018-06-02T08:39:57.022Z,1016.98
2018-06-02T08:41:24.621Z,1017.02
2018-06-02T08:42:52.306Z,1017.03
2018-06-02T08:44:20.041Z,1017.04
2018-06-02T08:45:47.518Z,1017.06
2018-06-02T08:47:15.217Z,1017.05
2018-06-02T08:48:42.686Z,1017.05
2018-06-02T08:50:10.393Z,1017.06
2018-06-02T08:51:37.942Z,1017.06
2018-06-02T08:53:05.610Z,1017.09
2018-06-02T08:54:33.008Z,1017.11
2018-06-02T08:56:00.536Z,1017.11
2018-06-02T08:57:28.062Z,1017.10
2018-06-02T08:58:55.745Z,1017.08
2018-06-02T09:00:23.251Z,1017.02
2018-06-02T09:01:53.845Z,1017.03
2018-06-02T09:03:17.937Z,1017.03
2018-06-02T09:04:45.000Z,1017.04
2018-06-02T09:06:12.624Z,1017.06
2018-06-02T09:07:40.182Z,1017.05
2018-06-02T09:09:08.006Z,1017.06
2018-06-02T09:10:34.961Z,1017.07
2018-06-02T09:12:02.002Z,1017.00
2018-06-02T09:13:29.602Z,1016.97
2018-06-02T09:14:57.023Z,1016.96
2018-06-02T09:16:23.646Z,1016.96
2018-06-02T09:17:51.272Z,1016.95
2018-06-02T09:19:18.809Z,1016.95
2018-06-02T09:20:46.599Z,1016.96
2018-06-02T09:22:14.186Z,1016.95
2018-06-02T09:23:41.901Z,1016.93
2018-06-02T09:25:09.493Z,1016.95
2018-06-02T09:26:37.027Z,1016.96
2018-06-02T09:28:04.572Z,1016.95
2018-06-02T09:29:32.058Z,1016.99
2018-06-02T09:30:59.151Z,1017.00
2018-06-02T09:32:26.813Z,1017.00
2018-06-02T09:33:54.408Z,1017.02
2018-06-02T09:35:20.796Z,1017.03
2018-06-02T09:36:48.461Z,1017.03
2018-06-02T09:38:15.962Z,1017.06
2018-06-02T09:39:43.541Z,1017.05
2018-06-02T09:41:11.164Z,1017.06
2018-06-02T09:42:38.701Z,1017.09
2018-06-02T09:44:06.461Z,1017.05
2018-06-02T09:45:34.068Z,1017.07
2018-06-02T09:47:00.737Z,1017.07
2018-06-02T09:48:28.284Z,1017.08
2018-06-02T09:49:55.831Z,1017.08
2018-06-02T09:51:23.531Z,1017.06
2018-06-02T09:52:51.018Z,1017.08
2018-06-02T09:54:18.799Z,1017.10
2018-06-02T09:55:46.506Z,1017.07
2018-06-02T09:57:13.459Z,1017.07
2018-06-02T09:58:41.203Z,1017.10
2018-06-02T10:00:08.919Z,1017.09
2018-06-02T10:01:36.492Z,1017.06
2018-06-02T10:03:04.189Z,1017.08
2018-06-02T10:04:32.851Z,1017.09
2018-06-02T10:05:58.936Z,1017.09
2018-06-02T10:07:26.588Z,1017.06
2018-06-02T10:08:54.200Z,1017.07
2018-06-02T10:10:21.933Z,1017.09
2018-06-02T10:11:49.654Z,1017.10
2018-06-02T10:13:16.296Z,1017.08
2018-06-02T10:14:43.956Z,1017.09
2018-06-02T10:16:11.540Z,1017.09
2018-06-02T10:17:39.303Z,1017.08
2018-06-02T10:19:06.297Z,1017.04
2018-06-02T10:20:33.871Z,1017.06
2018-06-02T10:22:01.293Z,1017.08
2018-06-02T10:23:27.851Z,1017.08
2018-06-02T10:24:55.219Z,1017.08
2018-06-02T10:26:22.873Z,1017.07
2018-06-02T10:27:50.581Z,1017.05
2018-06-02T10:29:18.228Z,1017.05
2018-06-02T10:30:45.206Z,1017.06
2018-06-02T10:32:12.868Z,1017.05
2018-06-02T10:33:40.536Z,1017.05
2018-06-02T10:35:07.794Z,1017.08
2018-06-02T10:36:35.486Z,1017.07
2018-06-02T10:38:03.119Z,1017.07
2018-06-02T10:39:30.651Z,1017.10
2018-06-02T10:40:58.342Z,1017.12
2018-06-02T10:42:26.095Z,1017.15
2018-06-02T10:43:53.026Z,1017.16
2018-06-02T10:45:20.762Z,1017.14
2018-06-02T10:46:47.363Z,1017.17
2018-06-02T10:48:14.946Z,1017.13
2018-06-02T10:49:42.407Z,1017.18
2018-06-02T10:51:09.665Z,1017.16
2018-06-02T10:52:37.352Z,1017.19
2018-06-02T10:54:05.084Z,1017.18
2018-06-02T10:55:32.328Z,1017.18
2018-06-02T10:57:02.625Z,1017.19
2018-06-02T10:58:26.711Z,1017.20
2018-06-02T10:59:54.282Z,1017.20
2018-06-02T11:01:22.064Z,1017.16
2018-06-02T11:02:49.697Z,1017.19
2018-06-02T11:04:17.245Z,1017.16
2018-06-02T11:05:44.956Z,1017.16
2018-06-02T11:07:12.693Z,1017.14
2018-06-02T11:08:40.160Z,1017.14
2018-06-02T11:10:07.703Z,1017.14
2018-06-02T11:11:35.502Z,1017.13
2018-06-02T11:13:03.204Z,1017.12
2018-06-02T11:14:30.688Z,1017.08
2018-06-02T11:15:58.439Z,1017.09
2018-06-02T11:17:25.827Z,1017.09
2018-06-02T11:18:53.481Z,1017.05
2018-06-02T11:20:21.214Z,1017.08
2018-06-02T11:21:48.994Z,1017.08
2018-06-02T11:23:16.787Z,1017.10
2018-06-02T11:24:44.477Z,1017.08
2018-06-02T11:26:12.138Z,1017.05
2018-06-02T11:27:39.905Z,1017.05
2018-06-02T11:29:07.610Z,1017.04
2018-06-02T11:30:35.021Z,1017.01
2018-06-02T11:32:02.772Z,1017.03
2018-06-02T11:33:30.456Z,1017.00
2018-06-02T11:34:58.038Z,1016.99
2018-06-02T11:36:25.826Z,1016.97
2018-06-02T11:37:52.900Z,1016.98
2018-06-02T11:39:20.533Z,1016.94
2018-06-02T11:40:48.170Z,1016.91
2018-06-02T11:42:15.984Z,1016.91
2018-06-02T11:43:43.120Z,1016.90
2018-06-02T11:45:10.855Z,1016.92
2018-06-02T11:46:38.452Z,1016.93
2018-06-02T11:48:06.117Z,1016.94
2018-06-02T11:49:33.826Z,1016.93
2018-06-02T11:51:01.422Z,1016.96
2018-06-02T11:52:29.126Z,1016.98
2018-06-02T11:53:56.662Z,1016.95
2018-06-02T11:55:24.329Z,1016.98
2018-06-02T11:56:51.942Z,1016.98
2018-06-02T11:58:19.375Z,1016.97
2018-06-02T11:59:47.083Z,1016.97
2018-06-02T12:01:14.716Z,1016.99
2018-06-02T12:02:42.415Z,1016.99
2018-06-02T12:04:10.063Z,1016.97
2018-06-02T12:05:37.653Z,1016.98
2018-06-02T12:07:05.368Z,1017.00
2018-06-02T12:08:33.155Z,1017.00
2018-06-02T12:10:00.758Z,1017.02
2018-06-02T12:11:27.802Z,1017.01
2018-06-02T12:12:55.487Z,1016.99
2018-06-02T12:14:23.180Z,1017.01
2018-06-02T12:15:50.868Z,1017.01
2018-06-02T12:17:18.651Z,1017.02
2018-06-02T12:18:45.398Z,1017.01
2018-06-02T12:20:13.127Z,1017.01
2018-06-02T12:21:40.764Z,1017.00
2018-06-02T12:23:08.070Z,1016.98
2018-06-02T12:24:35.664Z,1016.99
2018-06-02T12:26:03.106Z,1016.95
2018-06-02T12:27:30.866Z,1016.93
2018-06-02T12:28:58.422Z,1016.97
2018-06-02T12:30:25.905Z,1016.95
2018-06-02T12:31:53.573Z,1016.97
2018-06-02T12:33:21.037Z,1016.96
2018-06-02T12:34:48.706Z,1016.99
2018-06-02T12:36:16.441Z,1016.95
2018-06-02T12:37:43.501Z,1016.93
2018-06-02T12:39:11.332Z,1016.92
2018-06-02T12:40:38.995Z,1016.91
2018-06-02T12:42:06.617Z,1016.86
2018-06-02T12:43:34.303Z,1016.87
2018-06-02T12:45:01.905Z,1016.88
2018-06-02T12:46:29.642Z,1016.82
2018-06-02T12:47:57.339Z,1016.84
2018-06-02T12:49:24.917Z,1016.79
2018-06-02T12:50:52.660Z,1016.77
2018-06-02T12:52:20.316Z,1016.77
2018-06-02T12:53:47.932Z,1016.74
2018-06-02T12:55:14.649Z,1016.75
2018-06-02T12:56:42.179Z,1016.73
2018-06-02T12:58:08.825Z,1016.69
2018-06-02T12:59:36.462Z,1016.65
2018-06-02T13:01:04.191Z,1016.63
2018-06-02T13:02:31.751Z,1016.61
2018-06-02T13:03:59.367Z,1016.60
2018-06-02T13:05:26.966Z,1016.59
2018-06-02T13:06:54.514Z,1016.54
2018-06-02T13:08:22.309Z,1016.55
2018-06-02T13:09:49.993Z,1016.51
2018-06-02T13:11:17.623Z,1016.50
2018-06-02T13:12:44.788Z,1016.50
2018-06-02T13:14:11.163Z,1016.51
2018-06-02T13:15:38.639Z,1016.48
2018-06-02T13:17:06.269Z,1016.49
2018-06-02T13:18:33.755Z,1016.49
2018-06-02T13:20:00.882Z,1016.52
2018-06-02T13:21:28.585Z,1016.56
2018-06-02T13:22:56.379Z,1016.57
2018-06-02T13:24:24.092Z,1016.59
2018-06-02T13:25:54.786Z,1016.67
2018-06-02T13:27:18.521Z,1016.69
2018-06-02T13:28:45.998Z,1016.69
2018-06-02T13:30:13.560Z,1016.71
2018-06-02T13:31:41.208Z,1016.65
2018-06-02T13:33:08.921Z,1016.66
2018-06-02T13:34:36.788Z,1016.62
2018-06-02T13:36:04.381Z,1016.63
2018-06-02T13:37:31.992Z,1016.64
2018-06-02T13:38:59.510Z,1016.64
2018-06-02T13:40:26.879Z,1016.65
2018-06-02T13:41:53.945Z,1016.68
2018-06-02T13:43:21.657Z,1016.71
2018-06-02T13:44:49.430Z,1016.73
2018-06-02T13:46:17.065Z,1016.74
2018-06-02T13:47:44.828Z,1016.69
2018-06-02T13:49:12.260Z,1016.66
2018-06-02T13:50:39.918Z,1016.63
2018-06-02T13:52:07.497Z,1016.66
2018-06-02T13:53:35.263Z,1016.62
2018-06-02T13:55:02.961Z,1016.63
2018-06-02T13:56:30.655Z,1016.65
2018-06-02T13:57:57.805Z,1016.64
2018-06-02T13:59:24.993Z,1016.62
2018-06-02T14:00:52.690Z,1016.61
2018-06-02T14:02:20.268Z,1016.58
2018-06-02T14:03:47.532Z,1016.53
2018-06-02T14:05:15.129Z,1016.51
2018-06-02T14:06:42.333Z,1016.45
2018-06-02T14:08:10.044Z,1016.43
2018-06-02T14:09:37.169Z,1016.41
2018-06-02T14:11:04.826Z,1016.42
2018-06-02T14:12:32.426Z,1016.45
2018-06-02T14:13:59.648Z,1016.43
2018-06-02T14:15:27.116Z,1016.43
2018-06-02T14:16:55.005Z,1016.43
2018-06-02T14:18:22.597Z,1016.43
2018-06-02T14:19:50.398Z,1016.46
2018-06-02T14:21:18.019Z,1016.51
2018-06-02T14:22:45.770Z,1016.49
2018-06-02T14:24:13.507Z,1016.58
2018-06-02T14:25:41.175Z,1016.66
2018-06-02T14:27:08.832Z,1016.71
2018-06-02T14:28:36.415Z,1016.69
2018-06-02T14:30:04.305Z,1016.70
2018-06-02T14:31:31.865Z,1016.65
2018-06-02T14:32:59.578Z,1016.65
2018-06-02T14:34:27.235Z,1016.60
2018-06-02T14:35:54.089Z,1016.60
2018-06-02T14:37:22.012Z,1016.59
2018-06-02T14:38:49.535Z,1016.59
2018-06-02T14:40:17.444Z,1016.57
2018-06-02T14:41:45.032Z,1016.60
2018-06-02T14:43:12.926Z,1016.58
2018-06-02T14:44:39.844Z,1016.60
2018-06-02T14:46:07.626Z,1016.58
2018-06-02T14:47:35.376Z,1016.57
2018-06-02T14:49:03.117Z,1016.55
2018-06-02T14:50:30.586Z,1016.55
2018-06-02T14:51:57.470Z,1016.58
2018-06-02T14:53:25.232Z,1016.57
2018-06-02T14:54:52.999Z,1016.55
2018-06-02T14:56:20.827Z,1016.61
2018-06-02T14:57:48.403Z,1016.61
2018-06-02T14:59:16.153Z,1016.62
2018-06-02T15:00:43.960Z,1016.67
2018-06-02T15:02:11.071Z,1016.77
2018-06-02T15:03:38.115Z,1016.89
2018-06-02T15:05:05.876Z,1016.99
2018-06-02T15:06:33.491Z,1017.05
2018-06-02T15:08:01.009Z,1017.06
2018-06-02T15:09:28.662Z,1017.05
2018-06-02T15:10:56.336Z,1017.07
2018-06-02T15:12:24.065Z,1017.09
2018-06-02T15:13:51.216Z,1017.10
2018-06-02T15:15:19.062Z,1017.08
2018-06-02T15:16:46.706Z,1017.11
2018-06-02T15:18:14.346Z,1017.13
2018-06-02T15:19:41.307Z,1017.10
2018-06-02T15:21:08.058Z,1017.04
2018-06-02T15:22:35.609Z,1017.04
2018-06-02T15:24:03.260Z,1017.02
2018-06-02T15:25:30.523Z,1017.03
2018-06-02T15:26:58.094Z,1017.00
2018-06-02T15:28:25.719Z,1016.99
2018-06-02T15:29:53.606Z,1016.98
2018-06-02T15:31:21.274Z,1016.95
2018-06-02T15:32:48.909Z,1016.95
2018-06-02T15:34:16.666Z,1016.98
2018-06-02T15:35:44.329Z,1016.98
2018-06-02T15:37:11.002Z,1017.03
2018-06-02T15:38:38.812Z,1017.03
2018-06-02T15:40:06.567Z,1017.01
2018-06-02T15:43:00.449Z,1017.03
2018-06-02T15:44:27.027Z,1017.00
2018-06-02T15:45:53.506Z,1016.96
2018-06-02T15:47:21.210Z,1016.99
2018-06-02T15:48:47.979Z,1016.96
2018-06-02T15:50:15.640Z,1016.95
2018-06-02T15:51:43.430Z,1016.97
2018-06-02T15:53:10.121Z,1016.98
2018-06-02T15:54:37.359Z,1016.97
2018-06-02T15:56:05.011Z,1016.97
2018-06-02T15:57:32.673Z,1017.00
2018-06-02T15:59:00.095Z,1017.01
2018-06-02T16:00:27.882Z,1017.00
2018-06-02T16:01:55.486Z,1016.99
2018-06-02T16:03:22.093Z,1016.99
2018-06-02T16:04:49.819Z,1016.96
2018-06-02T16:06:17.515Z,1016.99
2018-06-02T16:07:52.921Z,1017.00
2018-06-02T16:09:12.580Z,1017.05
2018-06-02T16:10:39.149Z,1017.11
2018-06-02T16:12:06.825Z,1017.13
2018-06-02T16:13:34.497Z,1017.14
2018-06-02T16:15:01.882Z,1017.15
2018-06-02T16:16:28.858Z,1017.13
2018-06-02T16:17:56.567Z,1017.13
2018-06-02T16:19:24.312Z,1017.12
2018-06-02T16:20:50.578Z,1017.13
2018-06-02T16:22:18.293Z,1017.12
2018-06-02T16:23:45.911Z,1017.14
2018-06-02T16:25:13.501Z,1017.15
2018-06-02T16:26:39.946Z,1017.18
2018-06-02T16:28:07.705Z,1017.21
2018-06-02T16:29:34.475Z,1017.23
2018-06-02T16:31:01.620Z,1017.22
2018-06-02T16:32:29.177Z,1017.23
2018-06-02T16:33:55.977Z,1017.24
2018-06-02T16:35:23.602Z,1017.20
2018-06-02T16:36:51.428Z,1017.20
2018-06-02T16:38:19.116Z,1017.21
2018-06-02T16:39:46.718Z,1017.20
2018-06-02T16:41:14.428Z,1017.23
2018-06-02T16:42:40.920Z,1017.26
2018-06-02T16:44:08.471Z,1017.28
2018-06-02T16:45:36.439Z,1017.30
2018-06-02T16:47:03.595Z,1017.32
2018-06-02T16:48:30.798Z,1017.31
2018-06-02T16:49:57.702Z,1017.28
2018-06-02T16:51:25.132Z,1017.29
2018-06-02T16:52:53.784Z,1017.28
2018-06-02T16:54:19.577Z,1017.27
2018-06-02T16:55:47.477Z,1017.25
2018-06-02T16:57:15.045Z,1017.27
2018-06-02T16:58:42.718Z,1017.27
2018-06-02T17:00:07.280Z,1017.28
2018-06-02T17:01:37.910Z,1017.30
2018-06-02T17:03:04.745Z,1017.35
2018-06-02T17:04:31.923Z,1017.35
2018-06-02T17:05:59.171Z,1017.36
2018-06-02T17:07:26.740Z,1017.36
2018-06-02T17:08:54.288Z,1017.35
2018-06-02T17:10:19.633Z,1017.36
2018-06-02T17:11:47.363Z,1017.40
2018-06-02T17:13:15.060Z,1017.42
2018-06-02T17:14:41.686Z,1017.48
2018-06-02T17:16:09.425Z,1017.47
2018-06-02T17:17:45.049Z,1017.48
2018-06-02T17:19:05.456Z,1017.50
2018-06-02T17:20:31.449Z,1017.49
2018-06-02T17:21:58.206Z,1017.47
2018-06-02T17:23:24.897Z,1017.42
2018-06-02T17:24:52.451Z,1017.43
2018-06-02T17:26:20.028Z,1017.42
2018-06-02T17:27:47.801Z,1017.43
2018-06-02T17:29:15.208Z,1017.48
2018-06-02T17:30:42.902Z,1017.55
2018-06-02T17:32:10.559Z,1017.61
2018-06-02T17:33:37.490Z,1017.63
2018-06-02T17:35:05.011Z,1017.64
2018-06-02T17:36:32.594Z,1017.63
2018-06-02T17:38:00.294Z,1017.62
2018-06-02T17:39:27.406Z,1017.60